sensor_id;sensor_type;location;lat;lon;timestamp;pressure;altitude;pressure_sealevel;temperature;humidity
50368;BME280;36281;34.132;-118.018;2023-02-15T00:01:32;99379.84;;;15.47;50.03
50368;BME280;36281;34.132;-118.018;2023-02-15T00:04:03;99387.00;;;15.42;49.95
50368;BME280;36281;34.132;-118.018;2023-02-15T00:06:32;99394.44;;;15.40;50.04
50368;BME280;36281;34.132;-118.018;2023-02-15T00:09:02;99396.53;;;15.33;50.98
50368;BME280;36281;34.132;-118.018;2023-02-15T00:11:31;99402.63;;;15.28;54.79
50368;BME280;36281;34.132;-118.018;2023-02-15T00:14:12;99405.75;;;15.20;56.53
50368;BME280;36281;34.132;-118.018;2023-02-15T00:16:42;99410.50;;;15.13;57.65
50368;BME280;36281;34.132;-118.018;2023-02-15T00:19:15;99398.09;;;15.02;57.74
50368;BME280;36281;34.132;-118.018;2023-02-15T00:21:46;99392.97;;;14.95;59.59
50368;BME280;36281;34.132;-118.018;2023-02-15T00:24:16;99400.44;;;14.93;60.19
50368;BME280;36281;34.132;-118.018;2023-02-15T00:26:46;99402.78;;;14.89;60.53
50368;BME280;36281;34.132;-118.018;2023-02-15T00:29:17;99399.81;;;14.86;59.93
50368;BME280;36281;34.132;-118.018;2023-02-15T00:31:47;99412.03;;;14.82;59.03
50368;BME280;36281;34.132;-118.018;2023-02-15T00:34:20;99405.34;;;14.79;60.08
50368;BME280;36281;34.132;-118.018;2023-02-15T00:36:50;99402.63;;;14.74;60.61
50368;BME280;36281;34.132;-118.018;2023-02-15T00:39:19;99395.88;;;14.66;58.57
50368;BME280;36281;34.132;-118.018;2023-02-15T00:41:48;99393.16;;;14.61;58.88
50368;BME280;36281;34.132;-118.018;2023-02-15T00:44:17;99399.47;;;14.55;58.56
50368;BME280;36281;34.132;-118.018;2023-02-15T00:46:46;99408.53;;;14.54;60.33
50368;BME280;36281;34.132;-118.018;2023-02-15T00:49:17;99404.19;;;14.48;60.61
50368;BME280;36281;34.132;-118.018;2023-02-15T00:51:46;99401.31;;;14.33;55.49
50368;BME280;36281;34.132;-118.018;2023-02-15T00:54:15;99401.06;;;14.12;39.30
50368;BME280;36281;34.132;-118.018;2023-02-15T00:56:44;99420.44;;;14.08;37.28
50368;BME280;36281;34.132;-118.018;2023-02-15T00:59:13;99392.69;;;14.04;37.39
50368;BME280;36281;34.132;-118.018;2023-02-15T01:01:43;99424.50;;;13.93;36.34
50368;BME280;36281;34.132;-118.018;2023-02-15T01:04:12;99417.22;;;13.72;29.25
50368;BME280;36281;34.132;-118.018;2023-02-15T01:06:43;99419.25;;;13.65;30.41
50368;BME280;36281;34.132;-118.018;2023-02-15T01:09:12;99431.75;;;13.64;31.18
50368;BME280;36281;34.132;-118.018;2023-02-15T01:11:42;99418.84;;;13.56;29.40
50368;BME280;36281;34.132;-118.018;2023-02-15T01:14:11;99429.09;;;13.48;29.27
50368;BME280;36281;34.132;-118.018;2023-02-15T01:16:41;99426.13;;;13.44;28.91
50368;BME280;36281;34.132;-118.018;2023-02-15T01:19:10;99432.00;;;13.46;30.23
50368;BME280;36281;34.132;-118.018;2023-02-15T01:21:39;99418.34;;;13.42;28.54
50368;BME280;36281;34.132;-118.018;2023-02-15T01:24:13;99420.72;;;13.39;29.58
50368;BME280;36281;34.132;-118.018;2023-02-15T01:26:42;99417.97;;;13.34;29.23
50368;BME280;36281;34.132;-118.018;2023-02-15T01:29:11;99425.69;;;13.35;29.39
50368;BME280;36281;34.132;-118.018;2023-02-15T01:31:40;99403.88;;;13.33;31.14
50368;BME280;36281;34.132;-118.018;2023-02-15T01:34:09;99404.25;;;13.25;30.44
50368;BME280;36281;34.132;-118.018;2023-02-15T01:36:38;99394.66;;;13.24;29.61
50368;BME280;36281;34.132;-118.018;2023-02-15T01:39:07;99404.72;;;13.22;30.02
50368;BME280;36281;34.132;-118.018;2023-02-15T01:41:40;99401.25;;;13.22;30.33
50368;BME280;36281;34.132;-118.018;2023-02-15T01:44:46;99410.63;;;13.12;30.19
50368;BME280;36281;34.132;-118.018;2023-02-15T01:47:19;99389.78;;;13.04;29.51
50368;BME280;36281;34.132;-118.018;2023-02-15T01:49:57;99405.38;;;13.01;29.98
50368;BME280;36281;34.132;-118.018;2023-02-15T01:52:26;99424.78;;;13.01;29.34
50368;BME280;36281;34.132;-118.018;2023-02-15T01:54:56;99409.56;;;12.97;29.72
50368;BME280;36281;34.132;-118.018;2023-02-15T01:57:28;99419.63;;;12.94;30.55
50368;BME280;36281;34.132;-118.018;2023-02-15T01:59:59;99419.19;;;12.86;30.89
50368;BME280;36281;34.132;-118.018;2023-02-15T02:02:30;99427.22;;;12.74;27.71
50368;BME280;36281;34.132;-118.018;2023-02-15T02:05:01;99418.00;;;12.65;27.69
50368;BME280;36281;34.132;-118.018;2023-02-15T02:07:40;99421.81;;;12.57;28.05
50368;BME280;36281;34.132;-118.018;2023-02-15T02:10:12;99424.38;;;12.52;27.68
50368;BME280;36281;34.132;-118.018;2023-02-15T02:12:45;99434.59;;;12.44;27.05
50368;BME280;36281;34.132;-118.018;2023-02-15T02:15:16;99417.00;;;12.42;26.66
50368;BME280;36281;34.132;-118.018;2023-02-15T02:17:55;99424.53;;;12.46;27.49
50368;BME280;36281;34.132;-118.018;2023-02-15T02:20:44;99427.19;;;12.46;28.18
50368;BME280;36281;34.132;-118.018;2023-02-15T02:23:43;99433.09;;;12.36;26.90
50368;BME280;36281;34.132;-118.018;2023-02-15T02:26:45;99434.28;;;12.28;24.94
50368;BME280;36281;34.132;-118.018;2023-02-15T02:35:29;99464.03;;;12.30;25.74
50368;BME280;36281;34.132;-118.018;2023-02-15T02:38:05;99450.66;;;12.25;26.31
50368;BME280;36281;34.132;-118.018;2023-02-15T02:40:46;99466.81;;;12.24;27.04
50368;BME280;36281;34.132;-118.018;2023-02-15T02:43:21;99458.16;;;12.16;26.65
50368;BME280;36281;34.132;-118.018;2023-02-15T02:45:57;99476.97;;;12.15;27.14
50368;BME280;36281;34.132;-118.018;2023-02-15T02:48:30;99480.78;;;12.07;27.07
50368;BME280;36281;34.132;-118.018;2023-02-15T02:51:02;99475.69;;;12.06;28.27
50368;BME280;36281;34.132;-118.018;2023-02-15T02:53:31;99489.41;;;12.03;28.37
50368;BME280;36281;34.132;-118.018;2023-02-15T02:56:09;99477.69;;;11.99;29.56
50368;BME280;36281;34.132;-118.018;2023-02-15T02:58:45;99486.31;;;11.94;29.34
50368;BME280;36281;34.132;-118.018;2023-02-15T03:01:22;99477.66;;;11.87;29.08
50368;BME280;36281;34.132;-118.018;2023-02-15T03:03:56;99501.63;;;11.80;28.60
50368;BME280;36281;34.132;-118.018;2023-02-15T03:06:36;99489.72;;;11.71;28.26
50368;BME280;36281;34.132;-118.018;2023-02-15T03:09:11;99488.53;;;11.67;26.70
50368;BME280;36281;34.132;-118.018;2023-02-15T03:11:44;99503.88;;;11.65;26.33
50368;BME280;36281;34.132;-118.018;2023-02-15T03:14:15;99511.63;;;11.67;26.21
50368;BME280;36281;34.132;-118.018;2023-02-15T03:16:47;99531.00;;;11.67;26.88
50368;BME280;36281;34.132;-118.018;2023-02-15T03:19:22;99532.84;;;11.67;27.27
50368;BME280;36281;34.132;-118.018;2023-02-15T03:21:57;99531.22;;;11.65;27.59
50368;BME280;36281;34.132;-118.018;2023-02-15T03:24:41;99532.25;;;11.64;28.28
50368;BME280;36281;34.132;-118.018;2023-02-15T03:27:14;99530.84;;;11.62;30.07
50368;BME280;36281;34.132;-118.018;2023-02-15T03:29:50;99537.06;;;11.56;29.58
50368;BME280;36281;34.132;-118.018;2023-02-15T03:32:21;99540.28;;;11.46;29.56
50368;BME280;36281;34.132;-118.018;2023-02-15T03:34:51;99550.38;;;11.37;29.08
50368;BME280;36281;34.132;-118.018;2023-02-15T03:37:26;99551.28;;;11.31;29.21
50368;BME280;36281;34.132;-118.018;2023-02-15T03:40:00;99566.00;;;11.27;30.26
50368;BME280;36281;34.132;-118.018;2023-02-15T03:42:57;99575.44;;;11.23;31.17
50368;BME280;36281;34.132;-118.018;2023-02-15T03:45:30;99573.91;;;11.16;29.91
50368;BME280;36281;34.132;-118.018;2023-02-15T03:48:01;99576.41;;;11.10;30.48
50368;BME280;36281;34.132;-118.018;2023-02-15T03:50:32;99586.63;;;11.07;28.62
50368;BME280;36281;34.132;-118.018;2023-02-15T03:53:25;99610.06;;;11.10;29.47
50368;BME280;36281;34.132;-118.018;2023-02-15T03:55:55;99629.41;;;11.10;29.62
50368;BME280;36281;34.132;-118.018;2023-02-15T03:58:25;99619.06;;;11.09;29.09
50368;BME280;36281;34.132;-118.018;2023-02-15T04:01:18;99620.88;;;11.08;29.31
50368;BME280;36281;34.132;-118.018;2023-02-15T04:04:13;99638.84;;;11.06;29.95
50368;BME280;36281;34.132;-118.018;2023-02-15T04:06:45;99635.81;;;11.03;27.50
50368;BME280;36281;34.132;-118.018;2023-02-15T04:09:15;99640.91;;;11.04;28.03
50368;BME280;36281;34.132;-118.018;2023-02-15T04:12:03;99643.91;;;11.08;27.66
50368;BME280;36281;34.132;-118.018;2023-02-15T04:14:32;99644.28;;;11.11;27.69
50368;BME280;36281;34.132;-118.018;2023-02-15T04:17:20;99657.91;;;11.15;27.69
50368;BME280;36281;34.132;-118.018;2023-02-15T04:19:49;99662.19;;;11.16;28.84
50368;BME280;36281;34.132;-118.018;2023-02-15T04:22:36;99669.31;;;11.16;28.80
50368;BME280;36281;34.132;-118.018;2023-02-15T04:25:25;99651.00;;;11.14;29.11
50368;BME280;36281;34.132;-118.018;2023-02-15T04:27:54;99655.28;;;11.15;29.66
50368;BME280;36281;34.132;-118.018;2023-02-15T04:30:25;99660.56;;;11.15;31.30
50368;BME280;36281;34.132;-118.018;2023-02-15T04:32:55;99663.22;;;11.15;31.07
50368;BME280;36281;34.132;-118.018;2023-02-15T04:35:25;99665.72;;;11.10;30.94
50368;BME280;36281;34.132;-118.018;2023-02-15T04:37:54;99655.16;;;11.03;30.53
50368;BME280;36281;34.132;-118.018;2023-02-15T04:40:25;99659.50;;;10.98;30.07
50368;BME280;36281;34.132;-118.018;2023-02-15T04:42:54;99678.28;;;10.96;30.12
50368;BME280;36281;34.132;-118.018;2023-02-15T04:45:23;99690.72;;;10.96;30.18
50368;BME280;36281;34.132;-118.018;2023-02-15T04:47:52;99693.00;;;10.92;30.74
50368;BME280;36281;34.132;-118.018;2023-02-15T04:50:21;99691.38;;;10.91;30.30
50368;BME280;36281;34.132;-118.018;2023-02-15T04:52:50;99701.41;;;10.89;30.30
50368;BME280;36281;34.132;-118.018;2023-02-15T04:55:19;99698.34;;;10.85;30.75
50368;BME280;36281;34.132;-118.018;2023-02-15T04:57:50;99702.03;;;10.84;30.67
50368;BME280;36281;34.132;-118.018;2023-02-15T05:00:19;99701.44;;;10.82;32.60
50368;BME280;36281;34.132;-118.018;2023-02-15T05:02:48;99697.41;;;10.80;33.10
50368;BME280;36281;34.132;-118.018;2023-02-15T05:05:17;99707.59;;;10.76;33.46
50368;BME280;36281;34.132;-118.018;2023-02-15T05:07:47;99709.28;;;10.71;35.04
50368;BME280;36281;34.132;-118.018;2023-02-15T05:10:16;99710.16;;;10.65;35.12
50368;BME280;36281;34.132;-118.018;2023-02-15T05:12:45;99716.94;;;10.54;35.06
50368;BME280;36281;34.132;-118.018;2023-02-15T05:15:16;99720.88;;;10.45;34.69
50368;BME280;36281;34.132;-118.018;2023-02-15T05:17:45;99725.41;;;10.38;33.84
50368;BME280;36281;34.132;-118.018;2023-02-15T05:20:14;99731.56;;;10.31;33.68
50368;BME280;36281;34.132;-118.018;2023-02-15T05:22:43;99731.38;;;10.26;33.65
50368;BME280;36281;34.132;-118.018;2023-02-15T05:25:12;99729.13;;;10.23;34.72
50368;BME280;36281;34.132;-118.018;2023-02-15T05:28:16;99735.03;;;10.19;34.52
50368;BME280;36281;34.132;-118.018;2023-02-15T05:30:50;99736.28;;;10.16;34.35
50368;BME280;36281;34.132;-118.018;2023-02-15T05:33:22;99725.53;;;10.11;33.20
50368;BME280;36281;34.132;-118.018;2023-02-15T05:35:51;99734.91;;;10.07;33.36
50368;BME280;36281;34.132;-118.018;2023-02-15T05:38:20;99717.41;;;10.06;33.36
50368;BME280;36281;34.132;-118.018;2023-02-15T05:40:50;99732.69;;;10.04;32.57
50368;BME280;36281;34.132;-118.018;2023-02-15T05:43:20;99733.28;;;10.06;32.39
50368;BME280;36281;34.132;-118.018;2023-02-15T05:45:52;99733.69;;;10.09;32.73
50368;BME280;36281;34.132;-118.018;2023-02-15T05:48:24;99734.28;;;10.12;33.21
50368;BME280;36281;34.132;-118.018;2023-02-15T05:51:00;99746.09;;;10.09;33.01
50368;BME280;36281;34.132;-118.018;2023-02-15T05:53:32;99754.88;;;10.09;33.35
50368;BME280;36281;34.132;-118.018;2023-02-15T05:56:01;99756.47;;;10.10;33.79
50368;BME280;36281;34.132;-118.018;2023-02-15T05:58:33;99764.19;;;10.12;33.77
50368;BME280;36281;34.132;-118.018;2023-02-15T06:01:10;99763.38;;;10.12;33.88
50368;BME280;36281;34.132;-118.018;2023-02-15T06:03:39;99757.88;;;10.13;35.09
50368;BME280;36281;34.132;-118.018;2023-02-15T06:06:09;99748.31;;;10.12;34.88
50368;BME280;36281;34.132;-118.018;2023-02-15T06:08:38;99744.28;;;10.09;35.14
50368;BME280;36281;34.132;-118.018;2023-02-15T06:11:07;99734.09;;;10.06;34.79
50368;BME280;36281;34.132;-118.018;2023-02-15T06:13:36;99727.19;;;10.05;34.52
50368;BME280;36281;34.132;-118.018;2023-02-15T06:16:06;99722.31;;;10.02;34.38
50368;BME280;36281;34.132;-118.018;2023-02-15T06:18:37;99706.84;;;9.99;34.39
50368;BME280;36281;34.132;-118.018;2023-02-15T06:21:06;99722.34;;;9.96;34.95
50368;BME280;36281;34.132;-118.018;2023-02-15T06:23:35;99748.00;;;9.95;35.03
50368;BME280;36281;34.132;-118.018;2023-02-15T06:26:04;99756.13;;;9.94;35.00
50368;BME280;36281;34.132;-118.018;2023-02-15T06:28:33;99771.19;;;9.93;35.73
50368;BME280;36281;34.132;-118.018;2023-02-15T06:31:03;99768.75;;;9.92;35.94
50368;BME280;36281;34.132;-118.018;2023-02-15T06:33:32;99772.44;;;9.91;35.54
50368;BME280;36281;34.132;-118.018;2023-02-15T06:36:04;99782.41;;;9.89;36.13
50368;BME280;36281;34.132;-118.018;2023-02-15T06:38:33;99790.78;;;9.86;37.26
50368;BME280;36281;34.132;-118.018;2023-02-15T06:41:02;99797.91;;;9.78;37.92
50368;BME280;36281;34.132;-118.018;2023-02-15T06:43:31;99806.25;;;9.75;37.98
50368;BME280;36281;34.132;-118.018;2023-02-15T06:46:00;99815.00;;;9.69;37.34
50368;BME280;36281;34.132;-118.018;2023-02-15T06:48:30;99822.97;;;9.63;37.52
50368;BME280;36281;34.132;-118.018;2023-02-15T06:50:59;99828.66;;;9.53;38.42
50368;BME280;36281;34.132;-118.018;2023-02-15T06:53:30;99835.59;;;9.47;39.12
50368;BME280;36281;34.132;-118.018;2023-02-15T06:56:03;99829.50;;;9.40;38.84
50368;BME280;36281;34.132;-118.018;2023-02-15T06:58:34;99838.06;;;9.36;38.68
50368;BME280;36281;34.132;-118.018;2023-02-15T07:01:04;99844.13;;;9.29;40.11
50368;BME280;36281;34.132;-118.018;2023-02-15T07:03:33;99858.16;;;9.23;39.63
50368;BME280;36281;34.132;-118.018;2023-02-15T07:06:04;99857.53;;;9.15;40.47
50368;BME280;36281;34.132;-118.018;2023-02-15T07:08:38;99865.25;;;9.10;40.85
50368;BME280;36281;34.132;-118.018;2023-02-15T07:11:08;99873.19;;;9.03;40.62
50368;BME280;36281;34.132;-118.018;2023-02-15T07:13:55;99872.38;;;8.96;41.18
50368;BME280;36281;34.132;-118.018;2023-02-15T07:16:24;99869.31;;;8.86;41.47
50368;BME280;36281;34.132;-118.018;2023-02-15T07:18:53;99866.03;;;8.84;41.51
50368;BME280;36281;34.132;-118.018;2023-02-15T07:21:22;99857.69;;;8.73;39.33
50368;BME280;36281;34.132;-118.018;2023-02-15T07:23:56;99867.25;;;8.74;39.35
50368;BME280;36281;34.132;-118.018;2023-02-15T07:26:26;99860.13;;;8.75;38.99
50368;BME280;36281;34.132;-118.018;2023-02-15T07:28:55;99867.44;;;8.79;37.86
50368;BME280;36281;34.132;-118.018;2023-02-15T07:31:24;99869.91;;;8.88;37.52
50368;BME280;36281;34.132;-118.018;2023-02-15T07:33:53;99868.09;;;8.95;37.64
50368;BME280;36281;34.132;-118.018;2023-02-15T07:36:22;99875.22;;;9.01;37.87
50368;BME280;36281;34.132;-118.018;2023-02-15T07:38:53;99877.28;;;9.05;38.46
50368;BME280;36281;34.132;-118.018;2023-02-15T07:41:22;99887.63;;;9.07;38.31
50368;BME280;36281;34.132;-118.018;2023-02-15T07:43:52;99873.59;;;9.06;37.49
50368;BME280;36281;34.132;-118.018;2023-02-15T07:46:21;99881.31;;;9.08;36.50
50368;BME280;36281;34.132;-118.018;2023-02-15T07:48:50;99876.66;;;9.10;36.64
50368;BME280;36281;34.132;-118.018;2023-02-15T07:51:19;99882.34;;;9.14;36.36
50368;BME280;36281;34.132;-118.018;2023-02-15T07:53:48;99893.34;;;9.17;36.15
50368;BME280;36281;34.132;-118.018;2023-02-15T07:56:19;99897.22;;;9.21;35.66
50368;BME280;36281;34.132;-118.018;2023-02-15T07:58:48;99895.97;;;9.24;36.17
50368;BME280;36281;34.132;-118.018;2023-02-15T08:01:20;99883.19;;;9.27;36.35
50368;BME280;36281;34.132;-118.018;2023-02-15T08:03:50;99901.88;;;9.26;35.49
50368;BME280;36281;34.132;-118.018;2023-02-15T08:06:21;99888.25;;;9.29;35.41
50368;BME280;36281;34.132;-118.018;2023-02-15T08:08:50;99908.19;;;9.31;36.43
50368;BME280;36281;34.132;-118.018;2023-02-15T08:11:23;99910.03;;;9.31;35.75
50368;BME280;36281;34.132;-118.018;2023-02-15T08:14:02;99919.78;;;9.30;35.03
50368;BME280;36281;34.132;-118.018;2023-02-15T08:16:34;99919.78;;;9.30;35.20
50368;BME280;36281;34.132;-118.018;2023-02-15T08:19:05;99919.56;;;9.32;34.89
50368;BME280;36281;34.132;-118.018;2023-02-15T08:21:35;99931.56;;;9.35;35.11
50368;BME280;36281;34.132;-118.018;2023-02-15T08:24:06;99925.88;;;9.38;35.07
50368;BME280;36281;34.132;-118.018;2023-02-15T08:26:38;99937.88;;;9.40;35.68
50368;BME280;36281;34.132;-118.018;2023-02-15T08:29:09;99917.34;;;9.36;34.33
50368;BME280;36281;34.132;-118.018;2023-02-15T08:31:38;99919.56;;;9.39;34.55
50368;BME280;36281;34.132;-118.018;2023-02-15T08:34:10;99924.84;;;9.39;35.65
50368;BME280;36281;34.132;-118.018;2023-02-15T08:36:40;99933.59;;;9.39;36.21
50368;BME280;36281;34.132;-118.018;2023-02-15T08:39:09;99939.69;;;9.40;35.67
50368;BME280;36281;34.132;-118.018;2023-02-15T08:41:42;99928.69;;;9.29;33.93
50368;BME280;36281;34.132;-118.018;2023-02-15T08:44:12;99921.78;;;9.28;33.65
50368;BME280;36281;34.132;-118.018;2023-02-15T08:46:42;99931.97;;;9.31;33.23
50368;BME280;36281;34.132;-118.018;2023-02-15T08:49:13;99940.31;;;9.35;33.79
50368;BME280;36281;34.132;-118.018;2023-02-15T08:51:42;99936.84;;;9.35;34.38
50368;BME280;36281;34.132;-118.018;2023-02-15T08:54:14;99940.50;;;9.33;34.61
50368;BME280;36281;34.132;-118.018;2023-02-15T08:56:46;99946.22;;;9.30;34.35
50368;BME280;36281;34.132;-118.018;2023-02-15T08:59:17;99943.56;;;9.30;34.97
50368;BME280;36281;34.132;-118.018;2023-02-15T09:01:47;99951.50;;;9.30;35.04
50368;BME280;36281;34.132;-118.018;2023-02-15T09:04:17;99968.75;;;9.26;35.70
50368;BME280;36281;34.132;-118.018;2023-02-15T09:06:47;99965.28;;;9.19;35.80
50368;BME280;36281;34.132;-118.018;2023-02-15T09:09:17;99948.22;;;9.15;35.47
50368;BME280;36281;34.132;-118.018;2023-02-15T09:11:50;99955.50;;;9.13;35.67
50368;BME280;36281;34.132;-118.018;2023-02-15T09:14:25;99956.91;;;9.09;34.78
50368;BME280;36281;34.132;-118.018;2023-02-15T09:16:55;99959.19;;;9.12;33.61
50368;BME280;36281;34.132;-118.018;2023-02-15T09:19:24;99961.59;;;9.14;33.23
50368;BME280;36281;34.132;-118.018;2023-02-15T09:21:53;99954.50;;;9.14;33.14
50368;BME280;36281;34.132;-118.018;2023-02-15T09:24:23;99965.69;;;9.16;33.55
50368;BME280;36281;34.132;-118.018;2023-02-15T09:26:53;99962.03;;;9.17;33.35
50368;BME280;36281;34.132;-118.018;2023-02-15T09:29:22;99957.56;;;9.18;33.99
50368;BME280;36281;34.132;-118.018;2023-02-15T09:31:51;99978.91;;;9.16;33.70
50368;BME280;36281;34.132;-118.018;2023-02-15T09:34:22;99966.72;;;9.15;34.37
50368;BME280;36281;34.132;-118.018;2023-02-15T09:36:51;99973.81;;;9.15;34.45
50368;BME280;36281;34.132;-118.018;2023-02-15T09:39:21;99964.84;;;9.09;34.48
50368;BME280;36281;34.132;-118.018;2023-02-15T09:45:29;99984.78;;;9.05;33.87
50368;BME280;36281;34.132;-118.018;2023-02-15T09:48:30;99989.81;;;9.00;32.92
50368;BME280;36281;34.132;-118.018;2023-02-15T09:51:18;99978.25;;;9.01;31.94
50368;BME280;36281;34.132;-118.018;2023-02-15T09:54:09;99976.22;;;9.03;32.93
50368;BME280;36281;34.132;-118.018;2023-02-15T09:56:47;99954.66;;;8.99;31.46
50368;BME280;36281;34.132;-118.018;2023-02-15T09:59:26;99974.97;;;8.99;31.43
50368;BME280;36281;34.132;-118.018;2023-02-15T10:02:09;99981.88;;;9.00;31.23
50368;BME280;36281;34.132;-118.018;2023-02-15T10:04:54;99960.38;;;9.03;30.62
50368;BME280;36281;34.132;-118.018;2023-02-15T10:07:41;99968.50;;;9.01;30.49
50368;BME280;36281;34.132;-118.018;2023-02-15T10:10:20;99964.84;;;9.02;30.16
50368;BME280;36281;34.132;-118.018;2023-02-15T10:13:02;99970.13;;;9.02;29.41
50368;BME280;36281;34.132;-118.018;2023-02-15T10:15:45;99952.88;;;9.06;28.93
50368;BME280;36281;34.132;-118.018;2023-02-15T10:18:37;99963.66;;;9.05;28.12
50368;BME280;36281;34.132;-118.018;2023-02-15T10:21:14;99945.38;;;9.10;27.78
50368;BME280;36281;34.132;-118.018;2023-02-15T10:24:06;99963.44;;;9.13;28.03
50368;BME280;36281;34.132;-118.018;2023-02-15T10:26:44;99950.22;;;9.13;27.68
50368;BME280;36281;34.132;-118.018;2023-02-15T10:29:23;99957.78;;;9.16;27.31
50368;BME280;36281;34.132;-118.018;2023-02-15T10:32:05;99956.16;;;9.15;27.71
50368;BME280;36281;34.132;-118.018;2023-02-15T10:34:45;99960.00;;;9.19;27.39
50368;BME280;36281;34.132;-118.018;2023-02-15T10:37:47;99966.72;;;9.22;27.34
50368;BME280;36281;34.132;-118.018;2023-02-15T10:40:28;99971.19;;;9.21;26.40
50368;BME280;36281;34.132;-118.018;2023-02-15T10:43:14;99971.78;;;9.23;27.09
50368;BME280;36281;34.132;-118.018;2023-02-15T10:45:53;99970.19;;;9.22;26.97
50368;BME280;36281;34.132;-118.018;2023-02-15T10:49:00;99974.84;;;9.20;26.58
50368;BME280;36281;34.132;-118.018;2023-02-15T10:51:39;99982.78;;;9.20;27.27
50368;BME280;36281;34.132;-118.018;2023-02-15T10:54:19;99997.00;;;9.19;27.15
50368;BME280;36281;34.132;-118.018;2023-02-15T10:56:54;100000.66;;;9.18;27.34
50368;BME280;36281;34.132;-118.018;2023-02-15T10:59:45;99994.75;;;9.16;26.69
50368;BME280;36281;34.132;-118.018;2023-02-15T11:02:23;100004.53;;;9.16;26.65
50368;BME280;36281;34.132;-118.018;2023-02-15T11:05:02;100003.06;;;9.13;26.56
50368;BME280;36281;34.132;-118.018;2023-02-15T11:07:40;99996.16;;;9.12;26.41
50368;BME280;36281;34.132;-118.018;2023-02-15T11:10:22;100013.03;;;9.11;26.54
50368;BME280;36281;34.132;-118.018;2023-02-15T11:12:56;100017.50;;;9.11;26.63
50368;BME280;36281;34.132;-118.018;2023-02-15T11:15:30;100011.41;;;9.10;26.37
50368;BME280;36281;34.132;-118.018;2023-02-15T11:18:05;100008.94;;;9.09;26.50
50368;BME280;36281;34.132;-118.018;2023-02-15T11:20:42;100015.84;;;9.10;26.75
50368;BME280;36281;34.132;-118.018;2023-02-15T11:23:15;100025.81;;;9.07;26.53
50368;BME280;36281;34.132;-118.018;2023-02-15T11:25:52;100036.59;;;9.06;27.23
50368;BME280;36281;34.132;-118.018;2023-02-15T11:28:27;100043.06;;;9.03;27.44
50368;BME280;36281;34.132;-118.018;2023-02-15T11:31:01;100030.06;;;9.02;27.51
50368;BME280;36281;34.132;-118.018;2023-02-15T11:33:35;100040.41;;;8.97;27.34
50368;BME280;36281;34.132;-118.018;2023-02-15T11:36:11;100046.50;;;8.91;28.23
50368;BME280;36281;34.132;-118.018;2023-02-15T11:38:42;100050.91;;;8.84;28.20
50368;BME280;36281;34.132;-118.018;2023-02-15T11:41:15;100061.88;;;8.80;29.20
50368;BME280;36281;34.132;-118.018;2023-02-15T11:43:52;100065.28;;;8.74;29.33
50368;BME280;36281;34.132;-118.018;2023-02-15T11:46:22;100063.22;;;8.70;31.08
50368;BME280;36281;34.132;-118.018;2023-02-15T11:48:51;100064.22;;;8.62;32.01
50368;BME280;36281;34.132;-118.018;2023-02-15T11:51:23;100062.72;;;8.53;31.85
50368;BME280;36281;34.132;-118.018;2023-02-15T11:53:52;100065.50;;;8.45;31.52
50368;BME280;36281;34.132;-118.018;2023-02-15T11:56:22;100076.22;;;8.37;29.79
50368;BME280;36281;34.132;-118.018;2023-02-15T11:58:55;100083.88;;;8.32;28.94
50368;BME280;36281;34.132;-118.018;2023-02-15T12:01:30;100083.06;;;8.31;29.08
50368;BME280;36281;34.132;-118.018;2023-02-15T12:04:04;100081.00;;;8.26;27.87
50368;BME280;36281;34.132;-118.018;2023-02-15T12:06:41;100079.16;;;8.27;28.08
50368;BME280;36281;34.132;-118.018;2023-02-15T12:09:17;100080.19;;;8.26;27.48
50368;BME280;36281;34.132;-118.018;2023-02-15T12:11:50;100082.81;;;8.26;28.10
50368;BME280;36281;34.132;-118.018;2023-02-15T12:14:19;100084.63;;;8.25;28.84
50368;BME280;36281;34.132;-118.018;2023-02-15T12:16:50;100089.91;;;8.25;28.95
50368;BME280;36281;34.132;-118.018;2023-02-15T12:19:29;100082.16;;;8.24;29.07
50368;BME280;36281;34.132;-118.018;2023-02-15T12:22:02;100090.28;;;8.22;30.07
50368;BME280;36281;34.132;-118.018;2023-02-15T12:24:34;100094.31;;;8.18;30.63
50368;BME280;36281;34.132;-118.018;2023-02-15T12:27:13;100098.31;;;8.14;30.34
50368;BME280;36281;34.132;-118.018;2023-02-15T12:29:46;100102.34;;;8.10;30.55
50368;BME280;36281;34.132;-118.018;2023-02-15T12:32:18;100110.66;;;8.07;31.45
50368;BME280;36281;34.132;-118.018;2023-02-15T12:34:50;100115.69;;;8.02;31.56
50368;BME280;36281;34.132;-118.018;2023-02-15T12:37:23;100119.25;;;7.94;31.61
50368;BME280;36281;34.132;-118.018;2023-02-15T12:39:56;100119.19;;;7.88;32.54
50368;BME280;36281;34.132;-118.018;2023-02-15T12:42:27;100118.28;;;7.81;32.74
50368;BME280;36281;34.132;-118.018;2023-02-15T12:45:00;100119.25;;;7.73;31.84
50368;BME280;36281;34.132;-118.018;2023-02-15T12:47:29;100122.19;;;7.63;32.41
50368;BME280;36281;34.132;-118.018;2023-02-15T12:50:12;100132.81;;;7.55;33.58
50368;BME280;36281;34.132;-118.018;2023-02-15T12:52:48;100139.66;;;7.49;33.34
50368;BME280;36281;34.132;-118.018;2023-02-15T12:55:21;100139.59;;;7.43;34.21
50368;BME280;36281;34.132;-118.018;2023-02-15T12:58:11;100148.22;;;7.37;33.77
50368;BME280;36281;34.132;-118.018;2023-02-15T13:00:45;100146.97;;;7.33;34.49
50368;BME280;36281;34.132;-118.018;2023-02-15T13:03:18;100150.94;;;7.29;34.44
50368;BME280;36281;34.132;-118.018;2023-02-15T13:05:51;100156.78;;;7.24;33.60
50368;BME280;36281;34.132;-118.018;2023-02-15T13:08:30;100162.78;;;7.18;34.85
50368;BME280;36281;34.132;-118.018;2023-02-15T13:11:02;100171.41;;;7.12;33.88
50368;BME280;36281;34.132;-118.018;2023-02-15T13:13:33;100184.47;;;7.05;34.02
50368;BME280;36281;34.132;-118.018;2023-02-15T13:16:06;100183.84;;;7.03;34.01